| time (UTC) | temp F | wind direction | speed knots | gust knots | rain 1hr in | rain 24hr in | rain mn in | humidity % | barometer mb |
| 20260507231247 | 50 | 329 | 9.6 | 20.9 | 0.00 | 0.00 | 0.00 | 58 | 1009.6 |
| 20260507230743 | 51 | 290 | 17.4 | 22.6 | 0.00 | 0.00 | 0.00 | 49 | 1009.3 |
| 20260507230241 | 51 | 308 | 8.7 | 11.3 | 0.00 | 0.00 | 0.00 | 48 | 1009.1 |
| 20260507225740 | 52 | 299 | 7.8 | 11.3 | 0.00 | 0.00 | 0.00 | 48 | 1008.9 |
| 20260507225237 | 52 | 302 | 7.0 | 8.7 | 0.00 | 0.00 | 0.00 | 48 | 1008.9 |
| 20260507224732 | 53 | 281 | 6.1 | 7.8 | 0.00 | 0.00 | 0.00 | 46 | 1008.6 |
| 20260507224230 | 53 | 294 | 7.0 | 8.7 | 0.00 | 0.00 | 0.00 | 46 | 1008.7 |
| 20260507223726 | 53 | 310 | 7.8 | 11.3 | 0.00 | 0.00 | 0.00 | 48 | 1008.5 |
| 20260507223222 | 53 | 305 | 5.2 | 11.3 | 0.00 | 0.00 | 0.00 | 47 | 1008.3 |
| 20260507222719 | 53 | 330 | 5.2 | 8.7 | 0.00 | 0.00 | 0.00 | 48 | 1008.6 |
| 20260507222216 | 54 | 291 | 7.8 | 11.3 | 0.00 | 0.00 | 0.00 | 46 | 1008.5 |
| 20260507221712 | 54 | 260 | 7.8 | 9.6 | 0.00 | 0.00 | 0.00 | 47 | 1008.6 |
| 20260507221209 | 53 | 295 | 7.0 | 14.8 | 0.00 | 0.00 | 0.00 | 46 | 1008.5 |
| 20260507220705 | 54 | 292 | 4.3 | 8.7 | 0.00 | 0.00 | 0.00 | 46 | 1008.4 |
| 20260507220204 | 54 | 257 | 3.5 | 8.7 | 0.00 | 0.00 | 0.00 | 45 | 1008.4 |
| 20260507215659 | 56 | 273 | 9.6 | 13.0 | 0.00 | 0.00 | 0.00 | 40 | 1008.2 |
| 20260507215157 | 56 | 301 | 5.2 | 8.7 | 0.00 | 0.00 | 0.00 | 41 | 1008.1 |
| 20260507214654 | 56 | 262 | 6.1 | 9.6 | 0.00 | 0.00 | 0.00 | 39 | 1008.2 |
| 20260507214151 | 56 | 296 | 10.4 | 13.9 | 0.00 | 0.00 | 0.00 | 40 | 1008.1 |
| 20260507213646 | 56 | 311 | 3.5 | 12.2 | 0.00 | 0.00 | 0.00 | 43 | 1008.0 |
| 20260507213144 | 56 | 295 | 9.6 | 12.2 | 0.00 | 0.00 | 0.00 | 40 | 1008.1 |
| 20260507212640 | 54 | 300 | 5.2 | 8.7 | 0.00 | 0.00 | 0.00 | 43 | 1008.2 |
| 20260507212137 | 54 | 293 | 12.2 | 15.6 | 0.00 | 0.00 | 0.00 | 41 | 1008.2 |
| 20260507211634 | 54 | 293 | 9.6 | 11.3 | 0.00 | 0.00 | 0.00 | 42 | 1008.0 |
| 20260507211129 | 54 | 292 | 7.8 | 16.5 | 0.00 | 0.00 | 0.00 | 43 | 1007.9 |
| 20260507210627 | 54 | 300 | 5.2 | 6.1 | 0.00 | 0.00 | 0.00 | 44 | 1008.0 |
| 20260507210124 | 55 | 272 | 6.1 | 7.8 | 0.00 | 0.00 | 0.00 | 45 | 1007.9 |
| 20260507205620 | 55 | 323 | 6.1 | 7.8 | 0.00 | 0.00 | 0.00 | 43 | 1007.8 |
| 20260507205117 | 55 | 311 | 6.1 | 8.7 | 0.00 | 0.00 | 0.00 | 43 | 1008.1 |
| 20260507204613 | 55 | 269 | 4.3 | 7.8 | 0.00 | 0.00 | 0.00 | 42 | 1007.9 |
| 20260507204110 | 55 | 284 | 7.8 | 8.7 | 0.00 | 0.00 | 0.00 | 42 | 1008.0 |
| 20260507203608 | 55 | 269 | 7.0 | 8.7 | 0.00 | 0.00 | 0.00 | 42 | 1008.2 |
| 20260507203106 | 54 | 306 | 9.6 | 12.2 | 0.00 | 0.00 | 0.00 | 43 | 1008.0 |
| 20260507202601 | 54 | 284 | 4.3 | 8.7 | 0.00 | 0.00 | 0.00 | 44 | 1008.0 |
| 20260507202057 | 54 | 293 | 8.7 | 12.2 | 0.00 | 0.00 | 0.00 | 43 | 1008.0 |
| 20260507201553 | 54 | 273 | 5.2 | 12.2 | 0.00 | 0.00 | 0.00 | 42 | 1008.2 |
| 20260507201050 | 54 | 317 | 5.2 | 9.6 | 0.00 | 0.00 | 0.00 | 44 | 1008.3 |
| 20260507200545 | 54 | 302 | 10.4 | 13.0 | 0.00 | 0.00 | 0.00 | 42 | 1008.3 |
| 20260507200042 | 54 | 297 | 6.1 | 11.3 | 0.00 | 0.00 | 0.00 | 40 | 1008.3 |
| 20260507195539 | 55 | 259 | 6.1 | 7.8 | 0.00 | 0.00 | 0.00 | 43 | 1008.2 |
| 20260507195037 | 57 | 317 | 5.2 | 11.3 | 0.00 | 0.00 | 0.00 | 40 | 1008.1 |
| 20260507194532 | 58 | 296 | 4.3 | 9.6 | 0.00 | 0.00 | 0.00 | 44 | 1008.2 |
| 20260507194029 | 56 | 264 | 4.3 | 8.7 | 0.00 | 0.00 | 0.00 | 42 | 1008.1 |
| 20260507193526 | 56 | 247 | 9.6 | 14.8 | 0.00 | 0.00 | 0.00 | 42 | 1008.3 |
| 20260507193022 | 56 | 286 | 5.2 | 12.2 | 0.00 | 0.00 | 0.00 | 43 | 1008.3 |
| 20260507192519 | 55 | 296 | 7.8 | 8.7 | 0.00 | 0.00 | 0.00 | 47 | 1008.4 |
| 20260507192016 | 55 | 261 | 6.1 | 7.0 | 0.00 | 0.00 | 0.00 | 43 | 1008.3 |
| 20260507191511 | 55 | 290 | 5.2 | 9.6 | 0.00 | 0.00 | 0.00 | 44 | 1008.3 |
| 20260507191008 | 55 | 221 | 2.6 | 9.6 | 0.00 | 0.00 | 0.00 | 43 | 1008.5 |
| 20260507190506 | 55 | 281 | 7.8 | 12.2 | 0.00 | 0.00 | 0.00 | 40 | 1008.5 |
| 20260507190006 | 55 | 272 | 8.7 | 12.2 | 0.00 | 0.00 | 0.00 | 41 | 1008.5 |
| 20260507185502 | 54 | 273 | 5.2 | 11.3 | 0.00 | 0.00 | 0.00 | 46 | 1008.6 |
| 20260507184958 | 54 | 313 | 9.6 | 12.2 | 0.00 | 0.00 | 0.00 | 43 | 1008.5 |
| 20260507184457 | 54 | 291 | 7.8 | 12.2 | 0.00 | 0.00 | 0.00 | 46 | 1008.7 |
| 20260507183954 | 54 | 267 | 7.0 | 13.0 | 0.00 | 0.00 | 0.00 | 45 | 1008.6 |
| 20260507183450 | 54 | 258 | 7.0 | 11.3 | 0.00 | 0.00 | 0.00 | 44 | 1008.6 |
| 20260507182948 | 54 | 292 | 5.2 | 9.6 | 0.00 | 0.00 | 0.00 | 45 | 1008.5 |
| 20260507182443 | 54 | 289 | 7.8 | 13.0 | 0.00 | 0.00 | 0.00 | 42 | 1008.7 |
| 20260507181939 | 54 | 298 | 12.2 | 18.2 | 0.00 | 0.00 | 0.00 | 41 | 1008.6 |
| 20260507181436 | 55 | 280 | 7.8 | 11.3 | 0.00 | 0.00 | 0.00 | 42 | 1008.5 |
| 20260507180933 | 55 | 270 | 9.6 | 13.0 | 0.00 | 0.00 | 0.00 | 41 | 1008.5 |
| 20260507180430 | 56 | 282 | 8.7 | 11.3 | 0.00 | 0.00 | 0.00 | 40 | 1008.7 |
| 20260507175925 | 55 | 242 | 8.7 | 12.2 | 0.00 | 0.00 | 0.00 | 40 | 1008.5 |
| 20260507175422 | 55 | 267 | 7.0 | 11.3 | 0.00 | 0.00 | 0.00 | 40 | 1008.9 |
| 20260507174920 | 55 | 282 | 7.0 | 8.7 | 0.00 | 0.00 | 0.00 | 43 | 1008.6 |
| 20260507174417 | 55 | 321 | 5.2 | 9.6 | 0.00 | 0.00 | 0.00 | 47 | 1008.9 |
| 20260507173915 | 53 | 257 | 3.5 | 5.2 | 0.00 | 0.00 | 0.00 | 45 | 1009.0 |
| 20260507173412 | 54 | 254 | 4.3 | 8.7 | 0.00 | 0.00 | 0.00 | 44 | 1009.1 |
| 20260507172908 | 54 | 285 | 8.7 | 11.3 | 0.00 | 0.00 | 0.00 | 45 | 1009.2 |
| 20260507172405 | 55 | 239 | 4.3 | 9.6 | 0.00 | 0.00 | 0.00 | 46 | 1009.1 |
| 20260507171901 | 56 | 312 | 1.7 | 8.7 | 0.00 | 0.00 | 0.00 | 38 | 1009.3 |
| 20260507171357 | 56 | 294 | 12.2 | 13.9 | 0.00 | 0.00 | 0.00 | 42 | 1009.2 |
| 20260507170855 | 56 | 272 | 6.1 | 7.8 | 0.00 | 0.00 | 0.00 | 49 | 1009.3 |
| 20260507170351 | 55 | 321 | 7.0 | 9.6 | 0.00 | 0.00 | 0.00 | 46 | 1009.4 |
| 20260507165847 | 54 | 250 | 5.2 | 9.6 | 0.00 | 0.00 | 0.00 | 51 | 1009.3 |
| 20260507165343 | 53 | 276 | 2.6 | 5.2 | 0.00 | 0.00 | 0.00 | 47 | 1009.4 |
| 20260507164839 | 53 | 273 | 8.7 | 8.7 | 0.00 | 0.00 | 0.00 | 45 | 1009.4 |
| 20260507164337 | 54 | 303 | 3.5 | 6.1 | 0.00 | 0.00 | 0.00 | 48 | 1009.6 |
| 20260507163833 | 54 | 283 | 6.1 | 7.8 | 0.00 | 0.00 | 0.00 | 46 | 1009.6 |
| 20260507163331 | 55 | 321 | 7.0 | 13.0 | 0.00 | 0.00 | 0.00 | 45 | 1009.6 |
| 20260507162827 | 54 | 244 | 0.9 | 7.0 | 0.00 | 0.00 | 0.00 | 44 | 1009.6 |
| 20260507162323 | 53 | 258 | 5.2 | 7.8 | 0.00 | 0.00 | 0.00 | 47 | 1009.6 |
| 20260507161820 | 54 | 272 | 5.2 | 7.0 | 0.00 | 0.00 | 0.00 | 46 | 1009.6 |
| 20260507161317 | 53 | 213 | 0.9 | 7.0 | 0.00 | 0.00 | 0.00 | 47 | 1009.8 |
| 20260507160813 | 55 | 239 | 5.2 | 6.1 | 0.00 | 0.00 | 0.00 | 43 | 1009.7 |
| 20260507160309 | 55 | 266 | 7.0 | 8.7 | 0.00 | 0.00 | 0.00 | 42 | 1009.6 |
| 20260507155805 | 55 | 259 | 4.3 | 7.0 | 0.00 | 0.00 | 0.00 | 49 | 1009.7 |
| 20260507155305 | 53 | 245 | 7.8 | 8.7 | 0.00 | 0.00 | 0.00 | 43 | 1009.7 |
| 20260507154758 | 53 | 264 | 7.8 | 8.7 | 0.00 | 0.00 | 0.00 | 46 | 1010.0 |
| 20260507154256 | 54 | 151 | 0.9 | 5.2 | 0.00 | 0.00 | 0.00 | 48 | 1010.0 |
| 20260507153752 | 51 | 297 | 5.2 | 7.0 | 0.00 | 0.00 | 0.00 | 47 | 1009.9 |
| 20260507153248 | 52 | 256 | 6.1 | 7.8 | 0.00 | 0.00 | 0.00 | 43 | 1010.1 |
| 20260507152745 | 53 | 269 | 6.1 | 12.2 | 0.00 | 0.00 | 0.00 | 45 | 1010.0 |
| 20260507152242 | 52 | 265 | 7.0 | 9.6 | 0.00 | 0.00 | 0.00 | 44 | 1010.2 |
| 20260507151737 | 51 | 288 | 7.0 | 12.2 | 0.00 | 0.00 | 0.00 | 48 | 1010.1 |
| 20260507151234 | 51 | 294 | 7.8 | 11.3 | 0.00 | 0.00 | 0.00 | 47 | 1010.3 |
| 20260507150731 | 52 | 246 | 5.2 | 13.9 | 0.00 | 0.00 | 0.00 | 47 | 1010.2 |
| 20260507150228 | 53 | 273 | 6.1 | 9.6 | 0.00 | 0.00 | 0.00 | 48 | 1010.4 |
| 20260507145724 | 53 | 295 | 7.0 | 8.7 | 0.00 | 0.00 | 0.00 | 47 | 1010.4 |
| 20260507145221 | 52 | 290 | 4.3 | 7.8 | 0.00 | 0.00 | 0.00 | 48 | 1010.3 |
| 20260507144718 | 53 | 260 | 7.0 | 8.7 | 0.00 | 0.00 | 0.00 | 49 | 1010.4 |
| 20260507144215 | 52 | 300 | 4.3 | 6.1 | 0.00 | 0.00 | 0.00 | 50 | 1010.5 |
| 20260507143712 | 52 | 247 | 4.3 | 7.0 | 0.00 | 0.00 | 0.00 | 46 | 1010.6 |
| 20260507143209 | 52 | 310 | 5.2 | 8.7 | 0.00 | 0.00 | 0.00 | 47 | 1010.7 |
| 20260507142704 | 52 | 256 | 6.1 | 9.6 | 0.00 | 0.00 | 0.00 | 46 | 1010.6 |
| 20260507142202 | 52 | 267 | 3.5 | 7.8 | 0.00 | 0.00 | 0.00 | 51 | 1010.7 |
| 20260507141657 | 53 | 248 | 5.2 | 7.0 | 0.00 | 0.00 | 0.00 | 50 | 1010.6 |
| 20260507141154 | 53 | 298 | 3.5 | 7.0 | 0.00 | 0.00 | 0.00 | 53 | 1010.9 |
| 20260507140651 | 52 | 274 | 3.5 | 5.2 | 0.00 | 0.00 | 0.00 | 55 | 1010.8 |
| 20260507140149 | 51 | 279 | 3.5 | 3.5 | 0.00 | 0.00 | 0.00 | 53 | 1011.0 |
| 20260507135645 | 51 | 311 | 7.8 | 9.6 | 0.00 | 0.00 | 0.00 | 48 | 1011.0 |
| 20260507135143 | 51 | 231 | 3.5 | 9.6 | 0.00 | 0.00 | 0.00 | 52 | 1010.9 |
| 20260507134639 | 50 | 301 | 6.1 | 9.6 | 0.00 | 0.00 | 0.00 | 54 | 1011.0 |
| 20260507134135 | 51 | 295 | 5.2 | 7.8 | 0.00 | 0.00 | 0.00 | 58 | 1010.9 |
| 20260507133631 | 50 | 266 | 5.2 | 7.8 | 0.00 | 0.00 | 0.00 | 54 | 1010.9 |
| 20260507133129 | 50 | 281 | 7.0 | 9.6 | 0.00 | 0.00 | 0.00 | 53 | 1011.0 |
| 20260507132626 | 50 | 242 | 5.2 | 11.3 | 0.00 | 0.00 | 0.00 | 55 | 1011.0 |
| 20260507132122 | 50 | 275 | 6.1 | 8.7 | 0.00 | 0.00 | 0.00 | 56 | 1010.8 |
| 20260507131619 | 49 | 232 | 4.3 | 7.0 | 0.00 | 0.00 | 0.00 | 56 | 1011.2 |
| 20260507131117 | 49 | 218 | 3.5 | 11.3 | 0.00 | 0.00 | 0.00 | 57 | 1010.8 |
| 20260507130613 | 49 | 246 | 5.2 | 7.0 | 0.00 | 0.00 | 0.00 | 58 | 1010.9 |
| 20260507130111 | 48 | 241 | 7.0 | 8.7 | 0.00 | 0.00 | 0.00 | 59 | 1010.9 |
| 20260507125610 | 48 | 279 | 5.2 | 9.6 | 0.00 | 0.00 | 0.00 | 58 | 1011.2 |
| 20260507125106 | 48 | 239 | 2.6 | 7.0 | 0.00 | 0.00 | 0.00 | 61 | 1011.0 |
| 20260507124603 | 48 | 259 | 5.2 | 6.1 | 0.00 | 0.00 | 0.00 | 60 | 1011.2 |
| 20260507124101 | 47 | 250 | 3.5 | 5.2 | 0.00 | 0.00 | 0.00 | 59 | 1010.9 |
| 20260507123559 | 47 | 173 | 2.6 | 3.5 | 0.00 | 0.00 | 0.00 | 61 | 1010.9 |
| 20260507123055 | 47 | 246 | 1.7 | 6.1 | 0.00 | 0.00 | 0.00 | 64 | 1011.0 |
| 20260507122550 | 47 | 268 | 2.6 | 3.5 | 0.00 | 0.00 | 0.00 | 62 | 1011.2 |
| 20260507122046 | 46 | 231 | 1.7 | 1.7 | 0.00 | 0.00 | 0.00 | 65 | 1011.2 |
| 20260507121542 | 46 | 241 | 2.6 | 2.6 | 0.00 | 0.00 | 0.00 | 63 | 1010.9 |
| 20260507121038 | 45 | 235 | 0.9 | 2.6 | 0.00 | 0.00 | 0.00 | 67 | 1011.0 |
| 20260507120535 | 45 | 218 | 0.9 | 1.7 | 0.00 | 0.00 | 0.00 | 67 | 1011.2 |
| 20260507120032 | 45 | 223 | 1.7 | 3.5 | 0.00 | 0.00 | 0.00 | 64 | 1011.2 |
| 20260507115528 | 45 | 211 | 0.0 | 0.9 | 0.00 | 0.00 | 0.00 | 69 | 1011.2 |
| 20260507115024 | 44 | 211 | 0.0 | 0.9 | 0.00 | 0.00 | 0.00 | 73 | 1011.2 |
| 20260507114520 | 44 | 211 | 0.0 | 0.9 | 0.00 | 0.00 | 0.00 | 74 | 1010.8 |
| 20260507114017 | 45 | 211 | 0.0 | 0.9 | 0.00 | 0.00 | 0.00 | 71 | 1011.2 |
| 20260507113514 | 44 | 211 | 0.0 | 0.0 | 0.00 | 0.00 | 0.00 | 73 | 1010.8 |
| 20260507113012 | 43 | 211 | 0.0 | 0.0 | 0.00 | 0.00 | 0.00 | 75 | 1010.8 |
| 20260507112509 | 42 | 211 | 0.0 | 0.0 | 0.00 | 0.00 | 0.00 | 77 | 1010.9 |
| 20260507112006 | 41 | 211 | 0.9 | 0.9 | 0.00 | 0.00 | 0.00 | 74 | 1010.9 |
| 20260507111504 | 41 | 212 | 0.0 | 0.9 | 0.00 | 0.00 | 0.00 | 74 | 1010.9 |
| 20260507110959 | 41 | 212 | 0.0 | 0.0 | 0.00 | 0.00 | 0.00 | 75 | 1010.8 |
| 20260507110456 | 41 | 212 | 0.0 | 0.0 | 0.00 | 0.00 | 0.00 | 74 | 1010.9 |
| 20260507105952 | 41 | 213 | 0.0 | 0.0 | 0.00 | 0.00 | 0.00 | 73 | 1011.0 |
| 20260507105449 | 40 | 213 | 0.0 | 0.0 | 0.00 | 0.00 | 0.00 | 78 | 1010.8 |
| 20260507104946 | 38 | 213 | 0.0 | 0.0 | 0.00 | 0.00 | 0.00 | 83 | 1010.7 |
| 20260507104443 | 37 | 213 | 0.0 | 0.0 | 0.00 | 0.00 | 0.00 | 80 | 1010.8 |
| 20260507103938 | 37 | 292 | 0.0 | 0.0 | 0.00 | 0.00 | 0.00 | 81 | 1010.7 |
| 20260507103435 | 37 | 292 | 0.0 | 0.0 | 0.00 | 0.00 | 0.00 | 82 | 1010.6 |
| 20260507102931 | 37 | 292 | 0.0 | 0.0 | 0.00 | 0.00 | 0.00 | 80 | 1010.7 |
| 20260507102428 | 37 | 292 | 0.0 | 0.0 | 0.00 | 0.00 | 0.00 | 80 | 1010.5 |
| 20260507101925 | 37 | 292 | 0.0 | 0.0 | 0.00 | 0.00 | 0.00 | 79 | 1010.7 |
| 20260507101420 | 37 | 292 | 0.0 | 0.0 | 0.00 | 0.00 | 0.00 | 76 | 1010.7 |
| 20260507100917 | 36 | 292 | 0.0 | 0.0 | 0.00 | 0.00 | 0.00 | 79 | 1010.7 |
| 20260507100414 | 35 | 292 | 0.0 | 0.0 | 0.00 | 0.00 | 0.00 | 84 | 1010.5 |
| 20260507095913 | 35 | 292 | 0.0 | 0.0 | 0.00 | 0.00 | 0.00 | 83 | 1010.4 |
| 20260507095409 | 35 | 292 | 0.0 | 0.0 | 0.00 | 0.00 | 0.00 | 83 | 1010.4 |
| 20260507094907 | 36 | 292 | 0.0 | 0.0 | 0.00 | 0.00 | 0.00 | 81 | 1010.6 |
| 20260507094403 | 37 | 292 | 0.0 | 0.0 | 0.00 | 0.00 | 0.00 | 79 | 1010.6 |
| 20260507093900 | 37 | 292 | 0.0 | 0.0 | 0.00 | 0.00 | 0.00 | 81 | 1010.4 |
| 20260507093358 | 37 | 292 | 0.0 | 0.0 | 0.00 | 0.00 | 0.00 | 82 | 1010.4 |
| 20260507092856 | 37 | 292 | 0.0 | 0.0 | 0.00 | 0.00 | 0.00 | 82 | 1010.5 |
| 20260507092352 | 37 | 292 | 0.0 | 0.0 | 0.00 | 0.00 | 0.00 | 82 | 1010.7 |
| 20260507091848 | 37 | 292 | 0.0 | 0.0 | 0.00 | 0.00 | 0.00 | 82 | 1010.7 |
| 20260507091345 | 37 | 292 | 0.0 | 0.0 | 0.00 | 0.00 | 0.00 | 81 | 1010.6 |
| 20260507090840 | 37 | 292 | 0.0 | 0.0 | 0.00 | 0.00 | 0.00 | 85 | 1010.5 |
| 20260507090337 | 37 | 292 | 0.0 | 0.0 | 0.00 | 0.00 | 0.00 | 83 | 1010.6 |
| 20260507085834 | 36 | 292 | 0.0 | 0.0 | 0.00 | 0.00 | 0.00 | 84 | 1010.7 |
| 20260507085331 | 36 | 292 | 0.0 | 0.0 | 0.00 | 0.00 | 0.00 | 85 | 1010.7 |
| 20260507084828 | 36 | 292 | 0.0 | 0.0 | 0.00 | 0.00 | 0.00 | 87 | 1010.9 |
| 20260507084324 | 37 | 292 | 0.0 | 0.0 | 0.00 | 0.00 | 0.00 | 86 | 1010.8 |
| 20260507083822 | 37 | 292 | 0.0 | 0.0 | 0.00 | 0.00 | 0.00 | 84 | 1010.7 |
| 20260507083318 | 37 | 292 | 0.0 | 0.0 | 0.00 | 0.00 | 0.00 | 84 | 1010.6 |
| 20260507082814 | 37 | 292 | 0.0 | 0.0 | 0.00 | 0.00 | 0.00 | 85 | 1010.8 |
| 20260507082310 | 38 | 292 | 0.0 | 0.0 | 0.00 | 0.00 | 0.00 | 83 | 1010.9 |
| 20260507081808 | 38 | 292 | 0.0 | 0.0 | 0.00 | 0.00 | 0.00 | 82 | 1010.8 |
| 20260507081303 | 39 | 292 | 0.0 | 0.0 | 0.00 | 0.00 | 0.00 | 83 | 1010.8 |
| 20260507080800 | 39 | 292 | 0.0 | 0.9 | 0.00 | 0.00 | 0.00 | 81 | 1010.9 |
| 20260507080257 | 39 | 292 | 0.9 | 0.9 | 0.00 | 0.00 | 0.00 | 78 | 1010.7 |
| 20260507075752 | 39 | 292 | 0.9 | 0.9 | 0.00 | 0.00 | 0.00 | 78 | 1010.9 |
| 20260507075248 | 40 | 292 | 0.9 | 0.9 | 0.00 | 0.00 | 0.00 | 75 | 1010.9 |
| 20260507074744 | 39 | 293 | 0.9 | 0.9 | 0.00 | 0.00 | 0.00 | 75 | 1010.9 |
| 20260507074243 | 39 | 294 | 0.9 | 0.9 | 0.00 | 0.00 | 0.00 | 81 | 1011.0 |
| 20260507073739 | 39 | 294 | 0.9 | 1.7 | 0.00 | 0.00 | 0.00 | 82 | 1011.0 |
| 20260507073236 | 40 | 294 | 0.9 | 0.9 | 0.00 | 0.00 | 0.00 | 75 | 1010.9 |
| 20260507072734 | 39 | 294 | 0.9 | 0.9 | 0.00 | 0.00 | 0.00 | 75 | 1010.8 |
| 20260507072231 | 39 | 294 | 0.0 | 0.0 | 0.00 | 0.00 | 0.00 | 76 | 1011.0 |
| 20260507071728 | 40 | 294 | 0.9 | 0.9 | 0.00 | 0.00 | 0.00 | 78 | 1010.9 |
| 20260507071224 | 41 | 294 | 0.9 | 0.9 | 0.00 | 0.00 | 0.00 | 71 | 1010.9 |
| 20260507070722 | 41 | 294 | 0.9 | 0.9 | 0.00 | 0.00 | 0.00 | 69 | 1010.8 |
| 20260507070218 | 41 | 294 | 0.9 | 0.9 | 0.00 | 0.00 | 0.00 | 70 | 1010.7 |
| 20260507065714 | 40 | 294 | 0.0 | 0.0 | 0.00 | 0.00 | 0.00 | 73 | 1010.8 |
| 20260507065212 | 41 | 294 | 0.0 | 0.0 | 0.00 | 0.00 | 0.00 | 74 | 1010.9 |
| 20260507064709 | 41 | 294 | 0.0 | 0.0 | 0.00 | 0.00 | 0.00 | 70 | 1011.2 |
| 20260507064208 | 41 | 294 | 0.0 | 0.0 | 0.00 | 0.00 | 0.00 | 71 | 1011.2 |
| 20260507063705 | 42 | 294 | 0.9 | 0.9 | 0.00 | 0.00 | 0.00 | 69 | 1011.0 |
| 20260507063201 | 41 | 294 | 0.9 | 0.9 | 0.00 | 0.00 | 0.00 | 71 | 1011.2 |
| 20260507062658 | 41 | 294 | 0.0 | 0.0 | 0.00 | 0.00 | 0.00 | 72 | 1011.2 |
| 20260507062156 | 42 | 294 | 0.9 | 0.9 | 0.00 | 0.00 | 0.00 | 70 | 1011.2 |
| 20260507061654 | 41 | 294 | 0.9 | 0.9 | 0.00 | 0.00 | 0.00 | 68 | 1011.3 |
| 20260507061152 | 41 | 294 | 0.9 | 0.9 | 0.00 | 0.00 | 0.00 | 73 | 1011.3 |
| 20260507060649 | 41 | 295 | 0.9 | 0.9 | 0.00 | 0.00 | 0.00 | 75 | 1011.5 |
| 20260507060145 | 41 | 294 | 0.9 | 0.9 | 0.00 | 0.00 | 0.00 | 69 | 1011.6 |
| 20260507055641 | 41 | 295 | 0.0 | 0.0 | 0.00 | 0.00 | 0.00 | 70 | 1011.4 |
| 20260507055137 | 41 | 294 | 0.0 | 0.0 | 0.00 | 0.00 | 0.00 | 71 | 1011.4 |
| 20260507054633 | 42 | 294 | 0.0 | 0.9 | 0.00 | 0.00 | 0.00 | 70 | 1011.4 |
| 20260507054131 | 42 | 295 | 0.0 | 0.0 | 0.00 | 0.00 | 0.00 | 69 | 1011.6 |
| 20260507053628 | 42 | 295 | 0.0 | 0.9 | 0.00 | 0.00 | 0.00 | 67 | 1011.4 |
| 20260507053126 | 42 | 295 | 0.0 | 0.9 | 0.00 | 0.00 | 0.00 | 66 | 1011.8 |
| 20260507052624 | 42 | 295 | 0.0 | 0.9 | 0.00 | 0.00 | 0.00 | 67 | 1011.6 |
| 20260507052120 | 43 | 295 | 0.9 | 0.9 | 0.00 | 0.00 | 0.00 | 66 | 1011.7 |
| 20260507051618 | 43 | 296 | 1.7 | 1.7 | 0.00 | 0.00 | 0.00 | 64 | 1011.8 |
| 20260507051115 | 43 | 298 | 1.7 | 1.7 | 0.00 | 0.00 | 0.00 | 65 | 1011.8 |
| 20260507050612 | 43 | 300 | 2.6 | 1.7 | 0.00 | 0.00 | 0.00 | 65 | 1011.9 |
| 20260507050108 | 43 | 304 | 1.7 | 2.6 | 0.00 | 0.00 | 0.00 | 66 | 1011.9 |
| 20260507045605 | 43 | 316 | 2.6 | 3.5 | 0.00 | 0.00 | 0.00 | 66 | 1011.9 |
| 20260507045102 | 43 | 307 | 2.6 | 2.6 | 0.00 | 0.00 | 0.00 | 68 | 1011.9 |
| 20260507044559 | 43 | 297 | 1.7 | 3.5 | 0.00 | 0.00 | 0.00 | 67 | 1011.9 |
| 20260507044056 | 43 | 308 | 0.9 | 2.6 | 0.00 | 0.00 | 0.00 | 69 | 1011.8 |
| 20260507043551 | 43 | 314 | 1.7 | 1.7 | 0.00 | 0.00 | 0.00 | 69 | 1011.8 |
| 20260507043049 | 43 | 314 | 1.7 | 2.6 | 0.00 | 0.00 | 0.00 | 68 | 1012.0 |
| 20260507042544 | 43 | 312 | 1.7 | 2.6 | 0.00 | 0.00 | 0.00 | 68 | 1011.9 |
| 20260507042040 | 43 | 306 | 1.7 | 2.6 | 0.00 | 0.00 | 0.00 | 67 | 1011.9 |
| 20260507041537 | 43 | 306 | 1.7 | 3.5 | 0.00 | 0.00 | 0.00 | 68 | 1012.0 |
| 20260507041034 | 43 | 299 | 1.7 | 1.7 | 0.00 | 0.00 | 0.00 | 67 | 1012.0 |
| 20260507040531 | 43 | 298 | 1.7 | 1.7 | 0.00 | 0.00 | 0.00 | 67 | 1011.8 |
| 20260507040027 | 43 | 311 | 1.7 | 1.7 | 0.00 | 0.50 | 0.50 | 67 | 1011.9 |
| 20260507035523 | 43 | 314 | 1.7 | 2.6 | 0.00 | 0.50 | 0.50 | 68 | 1011.9 |
| 20260507035020 | 43 | 312 | 3.5 | 5.2 | 0.00 | 0.50 | 0.50 | 67 | 1011.8 |
| 20260507034517 | 43 | 311 | 1.7 | 2.6 | 0.00 | 0.50 | 0.50 | 68 | 1011.7 |
| 20260507034015 | 43 | 308 | 0.9 | 1.7 | 0.00 | 0.50 | 0.50 | 68 | 1011.8 |
| 20260507033512 | 43 | 310 | 1.7 | 2.6 | 0.00 | 0.50 | 0.50 | 67 | 1011.7 |
| 20260507033009 | 43 | 308 | 1.7 | 2.6 | 0.00 | 0.50 | 0.50 | 67 | 1011.9 |
| 20260507032506 | 43 | 321 | 0.9 | 0.9 | 0.00 | 0.50 | 0.50 | 68 | 1011.8 |
| 20260507032002 | 43 | 321 | 1.7 | 1.7 | 0.00 | 0.50 | 0.50 | 67 | 1011.7 |
| 20260507031458 | 43 | 315 | 2.6 | 1.7 | 0.00 | 0.50 | 0.50 | 67 | 1011.7 |
| 20260507030955 | 44 | 313 | 1.7 | 2.6 | 0.00 | 0.50 | 0.50 | 67 | 1011.8 |
| 20260507030452 | 44 | 307 | 0.9 | 1.7 | 0.00 | 0.50 | 0.50 | 66 | 1011.8 |
| 20260507025950 | 44 | 307 | 1.7 | 2.6 | 0.00 | 0.50 | 0.50 | 66 | 1011.9 |
| 20260507025447 | 44 | 314 | 0.9 | 1.7 | 0.00 | 0.50 | 0.50 | 66 | 1011.9 |
| 20260507024945 | 44 | 318 | 1.7 | 1.7 | 0.00 | 0.50 | 0.50 | 66 | 1011.8 |
| 20260507024442 | 44 | 316 | 0.9 | 2.6 | 0.00 | 0.50 | 0.50 | 65 | 1011.5 |
| 20260507023937 | 44 | 312 | 2.6 | 2.6 | 0.00 | 0.50 | 0.50 | 64 | 1011.5 |
| 20260507023435 | 44 | 318 | 1.7 | 3.5 | 0.00 | 0.50 | 0.50 | 63 | 1011.6 |
| 20260507022932 | 44 | 325 | 1.7 | 1.7 | 0.00 | 0.50 | 0.50 | 65 | 1011.5 |
| 20260507022429 | 44 | 11 | 1.7 | 1.7 | 0.00 | 0.50 | 0.50 | 63 | 1011.2 |
| 20260507021924 | 44 | 17 | 0.9 | 1.7 | 0.00 | 0.50 | 0.50 | 62 | 1011.3 |
| 20260507021420 | 44 | 24 | 0.9 | 1.7 | 0.00 | 0.50 | 0.50 | 63 | 1011.4 |
| 20260507020918 | 44 | 24 | 0.9 | 1.7 | 0.00 | 0.50 | 0.50 | 61 | 1011.3 |
| 20260507020414 | 45 | 28 | 1.7 | 1.7 | 0.00 | 0.50 | 0.50 | 62 | 1011.2 |
| 20260507015911 | 45 | 47 | 0.0 | 2.6 | 0.00 | 0.50 | 0.50 | 61 | 1011.3 |
| 20260507015409 | 45 | 40 | 0.0 | 0.9 | 0.00 | 0.50 | 0.50 | 61 | 1011.2 |
| 20260507014906 | 45 | 33 | 1.7 | 1.7 | 0.00 | 0.50 | 0.50 | 62 | 1011.4 |
| 20260507014402 | 45 | 35 | 0.9 | 1.7 | 0.00 | 0.50 | 0.50 | 63 | 1011.2 |
| 20260507013859 | 45 | 344 | 0.0 | 0.0 | 0.00 | 0.50 | 0.50 | 62 | 1011.2 |
| 20260507013356 | 45 | 344 | 0.0 | 0.9 | 0.00 | 0.50 | 0.50 | 61 | 1011.2 |
| 20260507012853 | 46 | 344 | 0.0 | 0.0 | 0.00 | 0.50 | 0.50 | 60 | 1011.0 |
| 20260507012349 | 46 | 344 | 0.9 | 0.9 | 0.00 | 0.50 | 0.50 | 60 | 1011.2 |
| 20260507011847 | 46 | 344 | 0.0 | 0.0 | 0.00 | 0.50 | 0.50 | 60 | 1011.3 |
| 20260507011344 | 46 | 344 | 0.0 | 0.0 | 0.00 | 0.50 | 0.50 | 60 | 1011.0 |
| 20260507010843 | 46 | 344 | 0.0 | 0.0 | 0.00 | 0.50 | 0.50 | 59 | 1011.3 |
| 20260507010339 | 46 | 344 | 0.0 | 0.0 | 0.00 | 0.50 | 0.50 | 60 | 1011.3 |
| 20260507005837 | 46 | 344 | 0.9 | 0.9 | 0.00 | 0.50 | 0.50 | 57 | 1011.0 |
| 20260507005333 | 46 | 343 | 0.9 | 0.9 | 0.00 | 0.50 | 0.50 | 58 | 1011.2 |
| 20260507004830 | 47 | 315 | 3.5 | 3.5 | 0.00 | 0.50 | 0.50 | 53 | 1011.3 |
| 20260507004327 | 47 | 315 | 3.5 | 3.5 | 0.00 | 0.50 | 0.50 | 53 | 1011.3 |
| 20260507003824 | 47 | 315 | 3.5 | 3.5 | 0.00 | 0.50 | 0.50 | 53 | 1011.0 |
| 20260507003320 | 47 | 315 | 3.5 | 3.5 | 0.00 | 0.50 | 0.50 | 53 | 1011.0 |
| 20260507002815 | 47 | 315 | 3.5 | 3.5 | 0.00 | 0.50 | 0.50 | 53 | 1011.0 |
| 20260507002311 | 47 | 315 | 3.5 | 3.5 | 0.00 | 0.50 | 0.50 | 53 | 1011.2 |
| 20260507001808 | 47 | 315 | 3.5 | 3.5 | 0.00 | 0.50 | 0.50 | 53 | 1011.2 |
| 20260507001306 | 47 | 315 | 3.5 | 3.5 | 0.00 | 0.50 | 0.50 | 53 | 1011.5 |
| 20260507000802 | 47 | 315 | 3.5 | 3.5 | 0.00 | 0.50 | 0.50 | 53 | 1011.5 |
| 20260507000259 | 48 | 323 | 7.8 | 8.7 | 0.00 | 0.50 | 0.50 | 51 | 1011.4 |
| 20260506235754 | 48 | 323 | 7.8 | 8.7 | 0.00 | 0.50 | 0.50 | 51 | 1011.4 |
| 20260506235250 | 48 | 323 | 7.8 | 8.7 | 0.00 | 0.50 | 0.50 | 51 | 1011.2 |
| 20260506234748 | 48 | 323 | 7.8 | 8.7 | 0.00 | 0.50 | 0.50 | 51 | 1011.3 |
| 20260506234244 | 48 | 295 | 5.2 | 8.7 | 0.00 | 0.50 | 0.50 | 52 | 1011.2 |
| 20260506233742 | 48 | 295 | 3.5 | 2.6 | 0.00 | 0.50 | 0.50 | 54 | 1011.2 |
| 20260506233238 | 48 | 295 | 3.5 | 2.6 | 0.00 | 0.50 | 0.50 | 54 | 1011.0 |
| 20260506232735 | 48 | 295 | 3.5 | 2.6 | 0.00 | 0.50 | 0.50 | 54 | 1010.7 |
| 20260506232230 | 49 | 330 | 5.2 | 7.0 | 0.00 | 0.50 | 0.50 | 52 | 1010.7 |
| 20260506231727 | 49 | 330 | 5.2 | 7.0 | 0.00 | 0.50 | 0.50 | 52 | 1010.5 |